Valle Del Fuerte International Airport
MMLM : rendu visible

Aérodrome :











RETROUVEZ-NOUS SUR...

 
LOGIN :

S'inscrire | Disclaimer

   EN    FR    IT 

 









Légende :    VFR   VFR Marginal   IFR   IFR Intensif   IFR Très Intensif
Visi : 
Plafond : 
>= 8 km
>= 3000ft
5 à 8 km
1000 à 3000 ft
1500m à 5 km
500 à 1000 ft
800 à 1500m
200 à 500 ft
< 800m
< 200 ft
Symboles :   Orages  Brouillard  Fortes neiges  Fortes précipitations  Vent > 20 kt






- Altitude de l'aérodrome : 16 ft
- Code IATA : LMM


MMLM - Valle Del Fuerte International

DERNIER METAR :
  • 141944Z 00000KT 10SM SKC 27/12 A2985 RMK HZY

METARs EXPIRÉS :
  • 141842Z 00000KT 10SM SKC 25/12 A2988 RMK HZY
  • 141740Z 00000KT 10SM SKC 23/13 A2991 RMK SLP129

TAF TAF MMLM
Valide du 14 à 18h jusqu'au 15 à 18h UTC


141602Z 1418/1518 34005KT P6SM SKC
BECMG 1420/1421 30012KT SCT020
FM150200 34005KT P6SM SKC
BECMG 1505/1506 00000KT
FM151000 15005KT 3SM BR HZ SCT015
TEMPO 1511/1515 1/4SM FG VV002
FM151600 15005KT 6SM HZ SCT015



MET'MAP, la Météo Aéronautique d'un coup d'oeil ! - Copyright ORBIFLY Décembre 2007 - Disclaimer

ORBIFLY MET'MAP TEAM :

Programmation & Développement : Alexandra Zaïnal
Sur une idée originale de : Baudouin d'Aumeries
Assistance à la programmation : Marc-Olivier Méhu
Soutien technique & logistique : Manuel Goepfert

Contact : metmap@orbifly.com




SOURCES & CREDITS :

   NOAA       Earth
Advisory